createdAt,value
2022-08-03T00:01:50.744Z,101254.47
2022-08-03T00:04:17.697Z,101224.69
2022-08-03T00:06:44.378Z,101246.38
2022-08-03T00:09:11.954Z,101247.13
2022-08-03T00:11:38.719Z,101233.41
2022-08-03T00:14:07.055Z,101193.28
2022-08-03T00:16:34.130Z,101231.78
2022-08-03T00:19:01.617Z,101226.75
2022-08-03T00:21:28.935Z,101217.31
2022-08-03T00:23:55.644Z,101235.63
2022-08-03T00:26:22.302Z,101235.75
2022-08-03T00:28:49.468Z,101233.28
2022-08-03T00:31:16.111Z,101237.81
2022-08-03T00:33:58.034Z,101238.78
2022-08-03T00:36:27.295Z,101231.94
2022-08-03T00:38:54.022Z,101224.50
2022-08-03T00:41:20.670Z,101234.78
2022-08-03T00:43:47.174Z,101226.94
2022-08-03T00:46:19.062Z,101225.28
2022-08-03T00:48:51.618Z,101229.72
2022-08-03T00:51:19.807Z,101217.91
2022-08-03T00:53:46.467Z,101217.91
2022-08-03T00:56:14.457Z,101221.41
2022-08-03T00:58:43.453Z,101222.44
2022-08-03T01:01:10.691Z,101216.34
2022-08-03T01:03:37.287Z,101209.41
2022-08-03T01:06:19.090Z,101215.75
2022-08-03T01:08:48.251Z,101213.97
2022-08-03T01:11:14.674Z,101213.16
2022-08-03T01:14:17.877Z,101210.63
2022-08-03T01:16:35.834Z,101208.97
2022-08-03T01:19:24.941Z,101207.41
2022-08-03T01:21:57.590Z,101212.75
2022-08-03T01:24:44.572Z,101159.69
2022-08-03T01:27:52.231Z,101212.09
2022-08-03T01:30:19.095Z,101210.38
2022-08-03T01:33:01.444Z,101166.09
2022-08-03T01:35:32.858Z,101204.75
2022-08-03T01:38:09.660Z,101162.91
2022-08-03T01:40:39.392Z,101218.03
2022-08-03T01:43:08.797Z,101217.28
2022-08-03T01:45:37.182Z,101159.88
2022-08-03T01:48:06.657Z,101208.03
2022-08-03T01:50:34.660Z,101210.63
2022-08-03T01:53:02.328Z,101211.59
2022-08-03T01:55:31.637Z,101106.88
2022-08-03T01:58:05.765Z,101199.78
2022-08-03T02:00:36.448Z,101212.00
2022-08-03T02:03:06.674Z,101143.03
2022-08-03T02:05:34.619Z,101106.44
2022-08-03T02:08:03.617Z,101145.03
2022-08-03T02:10:34.471Z,101197.41
2022-08-03T02:13:02.834Z,101201.03
2022-08-03T02:15:31.454Z,101189.75
2022-08-03T02:18:00.088Z,101191.47
2022-08-03T02:20:27.805Z,101199.44
2022-08-03T02:22:54.546Z,101183.16
2022-08-03T02:25:21.202Z,101191.72
2022-08-03T02:27:55.026Z,101163.78
2022-08-03T02:30:23.546Z,101189.34
2022-08-03T02:32:57.742Z,101145.81
2022-08-03T02:35:26.750Z,101134.59
2022-08-03T02:37:59.813Z,101187.94
2022-08-03T02:40:29.163Z,101187.22
2022-08-03T02:42:59.378Z,101178.50
2022-08-03T02:45:27.699Z,101119.16
2022-08-03T02:47:59.879Z,101124.44
2022-08-03T02:50:28.028Z,101179.44
2022-08-03T02:52:55.962Z,101165.66
2022-08-03T02:55:25.985Z,101177.13
2022-08-03T02:57:54.026Z,101166.44
2022-08-03T03:00:27.516Z,101172.50
2022-08-03T03:03:01.376Z,101162.22
2022-08-03T03:05:55.791Z,101179.50
2022-08-03T03:08:20.674Z,101183.06
2022-08-03T03:10:48.935Z,101120.22
2022-08-03T03:13:23.042Z,101170.84
2022-08-03T03:15:50.723Z,101166.00
2022-08-03T03:18:22.301Z,101186.84
2022-08-03T03:20:51.461Z,101188.81
2022-08-03T03:23:19.304Z,101186.25
2022-08-03T03:25:46.530Z,101181.94
2022-08-03T03:28:13.267Z,101191.63
2022-08-03T03:30:39.791Z,101189.03
2022-08-03T03:33:06.660Z,101192.50
2022-08-03T03:35:37.071Z,101166.63
2022-08-03T03:38:06.190Z,101187.97
2022-08-03T03:40:34.703Z,101201.09
2022-08-03T03:43:01.360Z,101205.41
2022-08-03T03:45:28.988Z,101204.53
2022-08-03T03:47:55.647Z,101205.41
2022-08-03T03:50:23.775Z,101205.50
2022-08-03T03:52:50.376Z,101202.94
2022-08-03T03:55:18.340Z,101181.38
2022-08-03T03:57:45.696Z,101207.97
2022-08-03T04:00:14.010Z,101200.84
2022-08-03T04:02:40.863Z,101205.13
2022-08-03T04:05:08.556Z,101209.56
2022-08-03T04:07:54.519Z,101212.25
2022-08-03T04:10:23.497Z,101205.47
2022-08-03T04:12:53.991Z,101200.72
2022-08-03T04:15:23.901Z,101155.25
2022-08-03T04:17:53.600Z,101209.44
2022-08-03T04:20:21.521Z,101210.25
2022-08-03T04:22:50.813Z,101193.84
2022-08-03T04:25:20.776Z,101200.03
2022-08-03T04:28:28.308Z,101139.88
2022-08-03T04:30:38.738Z,101178.63
2022-08-03T04:33:07.369Z,101197.41
2022-08-03T04:36:01.203Z,101205.94
2022-08-03T04:38:25.514Z,101209.44
2022-08-03T04:40:52.822Z,101212.97
2022-08-03T04:43:22.439Z,101196.53
2022-08-03T04:45:50.123Z,101212.00
2022-08-03T04:48:17.404Z,101214.59
2022-08-03T04:50:44.589Z,101205.22
2022-08-03T04:53:11.264Z,101213.66
2022-08-03T04:55:37.897Z,101157.78
2022-08-03T04:58:04.678Z,101217.03
2022-08-03T05:00:31.292Z,101223.94
2022-08-03T05:02:58.071Z,101211.63
2022-08-03T05:05:24.726Z,101213.53
2022-08-03T05:07:51.537Z,101214.06
2022-08-03T05:10:19.712Z,101213.16
2022-08-03T05:12:48.413Z,101164.41
2022-08-03T05:15:15.461Z,101214.81
2022-08-03T05:17:41.998Z,101217.41
2022-08-03T05:20:09.365Z,101218.31
2022-08-03T05:22:35.932Z,101211.31
2022-08-03T05:25:03.220Z,101215.69
2022-08-03T05:27:29.818Z,101219.03
2022-08-03T05:29:56.340Z,101227.81
2022-08-03T05:32:42.863Z,101190.78
2022-08-03T05:36:00.709Z,101222.41
2022-08-03T05:37:56.217Z,101225.97
2022-08-03T05:40:22.747Z,101225.88
2022-08-03T05:42:49.270Z,101225.78
2022-08-03T05:45:15.763Z,101232.63
2022-08-03T05:47:42.386Z,101229.03
2022-08-03T05:50:09.259Z,101225.31
2022-08-03T05:52:35.802Z,101222.47
2022-08-03T05:55:05.392Z,101244.34
2022-08-03T05:57:31.947Z,101231.81
2022-08-03T05:59:58.996Z,101232.47
2022-08-03T06:02:28.372Z,101229.56
2022-08-03T06:04:54.934Z,101226.81
2022-08-03T06:07:21.465Z,101241.47
2022-08-03T06:10:33.849Z,101237.75
2022-08-03T06:12:34.793Z,101237.63
2022-08-03T06:15:02.096Z,101241.06
2022-08-03T06:17:28.680Z,101230.41
2022-08-03T06:20:04.912Z,101234.72
2022-08-03T06:22:31.428Z,101239.84
2022-08-03T06:24:58.549Z,101237.09
2022-08-03T06:27:37.032Z,101237.91
2022-08-03T06:30:05.251Z,101235.09
2022-08-03T06:32:32.009Z,101240.38
2022-08-03T06:34:58.538Z,101241.19
2022-08-03T06:37:25.350Z,101237.59
2022-08-03T06:39:51.875Z,101239.31
2022-08-03T06:42:18.621Z,101238.53
2022-08-03T06:44:47.242Z,101241.78
2022-08-03T06:47:13.761Z,101243.41
2022-08-03T06:49:40.388Z,101243.56
2022-08-03T06:52:07.153Z,101253.25
2022-08-03T06:54:33.959Z,101247.97
2022-08-03T06:57:00.486Z,101247.97
2022-08-03T07:00:09.680Z,101250.53
2022-08-03T07:02:19.161Z,101247.78
2022-08-03T07:04:49.530Z,101243.28
2022-08-03T07:07:16.260Z,101252.03
2022-08-03T07:09:42.761Z,101243.13
2022-08-03T07:12:23.942Z,101250.72
2022-08-03T07:14:50.451Z,101255.56
2022-08-03T07:17:16.989Z,101243.09
2022-08-03T07:19:43.484Z,101261.03
2022-08-03T07:22:10.074Z,101252.97
2022-08-03T07:24:36.617Z,101244.91
2022-08-03T07:27:03.845Z,101263.63
2022-08-03T07:29:30.352Z,101258.84
2022-08-03T07:32:01.969Z,101259.31
2022-08-03T07:34:28.596Z,101260.69
2022-08-03T07:36:55.208Z,101255.16
2022-08-03T07:39:21.730Z,101249.06
2022-08-03T07:41:48.385Z,101245.50
2022-08-03T07:44:14.915Z,101253.44
2022-08-03T07:46:41.498Z,101246.44
2022-08-03T07:49:08.047Z,101235.84
2022-08-03T07:51:34.774Z,101254.56
2022-08-03T07:54:01.740Z,101251.50
2022-08-03T07:56:28.865Z,101259.97
2022-08-03T07:58:55.572Z,101258.69
2022-08-03T08:01:22.729Z,101254.94
2022-08-03T08:03:53.277Z,101247.31
2022-08-03T08:06:20.706Z,101250.50
2022-08-03T08:08:47.463Z,101253.38
2022-08-03T08:11:14.218Z,101252.59
2022-08-03T08:13:40.766Z,101267.72
2022-08-03T08:16:07.379Z,101255.56
2022-08-03T08:18:33.917Z,101260.28
2022-08-03T08:21:00.472Z,101256.81
2022-08-03T08:23:43.515Z,101262.78
2022-08-03T08:26:11.745Z,101265.81
2022-08-03T08:28:38.679Z,101262.50
2022-08-03T08:31:05.456Z,101265.53
2022-08-03T08:36:18.649Z,101262.06
2022-08-03T08:38:45.329Z,101259.56
2022-08-03T08:41:13.777Z,101239.66
2022-08-03T08:43:41.330Z,101258.69
2022-08-03T08:46:12.388Z,101215.66
2022-08-03T08:48:42.111Z,101261.53
2022-08-03T08:51:12.189Z,101218.47
2022-08-03T08:53:43.111Z,101261.94
2022-08-03T08:56:12.661Z,101245.06
2022-08-03T08:58:47.010Z,101255.97
2022-08-03T09:01:13.650Z,101257.03
2022-08-03T09:03:41.060Z,101252.09
2022-08-03T09:06:07.625Z,101245.34
2022-08-03T09:08:34.264Z,101249.72
2022-08-03T09:11:00.950Z,101252.09
2022-08-03T09:13:27.476Z,101252.75
2022-08-03T09:16:13.709Z,101251.44
2022-08-03T09:18:45.983Z,101250.06
2022-08-03T09:21:31.658Z,101272.28
2022-08-03T09:24:03.658Z,101261.84
2022-08-03T09:26:32.710Z,101264.72
2022-08-03T09:29:06.812Z,101263.56
2022-08-03T09:31:43.495Z,101246.03
2022-08-03T09:34:13.018Z,101271.72
2022-08-03T09:36:50.475Z,101231.44
2022-08-03T09:39:41.213Z,101271.88
2022-08-03T09:42:17.359Z,101221.56
2022-08-03T09:44:52.020Z,101259.31
2022-08-03T09:47:32.941Z,101269.34
2022-08-03T09:50:02.734Z,101257.63
2022-08-03T09:52:39.037Z,101254.75
2022-08-03T09:55:23.543Z,101265.53
2022-08-03T09:58:06.770Z,101232.13
2022-08-03T10:00:52.132Z,101263.63
2022-08-03T10:03:18.709Z,101264.03
2022-08-03T10:05:45.289Z,101262.44
2022-08-03T10:08:16.966Z,101260.94
2022-08-03T10:10:45.096Z,101245.88
2022-08-03T10:13:14.057Z,101256.97
2022-08-03T10:16:23.182Z,101264.25
2022-08-03T10:18:27.947Z,101261.78
2022-08-03T10:21:02.982Z,101263.75
2022-08-03T10:23:34.510Z,101227.72
2022-08-03T10:26:04.016Z,101226.16
2022-08-03T10:28:45.341Z,101257.97
2022-08-03T10:31:13.957Z,101253.25
2022-08-03T10:33:52.090Z,101270.16
2022-08-03T10:36:23.676Z,101266.19
2022-08-03T10:38:51.568Z,101270.28
2022-08-03T10:41:21.130Z,101263.31
2022-08-03T10:43:56.431Z,101229.34
2022-08-03T10:46:23.493Z,101263.16
2022-08-03T10:48:50.793Z,101265.44
2022-08-03T10:51:17.439Z,101268.19
2022-08-03T10:53:55.017Z,101247.94
2022-08-03T10:56:48.060Z,101267.31
2022-08-03T10:59:28.145Z,101265.13
2022-08-03T11:02:00.008Z,101235.81
2022-08-03T11:04:28.810Z,101250.00
2022-08-03T11:07:24.172Z,101263.13
2022-08-03T11:09:55.854Z,101259.50
2022-08-03T11:12:31.263Z,101238.25
2022-08-03T11:15:07.509Z,101209.25
2022-08-03T11:17:46.925Z,101238.34
2022-08-03T11:20:46.895Z,101255.41
2022-08-03T11:23:14.693Z,101251.06
2022-08-03T11:26:15.212Z,101255.91
2022-08-03T11:28:44.327Z,101252.22
2022-08-03T11:31:48.248Z,101246.53
2022-08-03T11:34:14.757Z,101242.03
2022-08-03T11:37:19.415Z,101252.28
2022-08-03T11:39:48.179Z,101230.28
2022-08-03T11:42:23.739Z,101250.81
2022-08-03T11:44:51.691Z,101225.75
2022-08-03T11:47:18.594Z,101242.34
2022-08-03T11:49:49.322Z,101232.66
2022-08-03T11:52:18.798Z,101252.31
2022-08-03T11:54:45.637Z,101244.13
2022-08-03T11:57:12.286Z,101233.88
2022-08-03T11:59:39.008Z,101244.97
2022-08-03T12:02:13.485Z,101239.00
2022-08-03T12:04:57.595Z,101233.41
2022-08-03T12:08:03.174Z,101241.03
2022-08-03T12:10:14.540Z,101237.06
2022-08-03T12:12:46.040Z,101247.13
2022-08-03T12:15:13.230Z,101242.84
2022-08-03T12:17:41.194Z,101249.81
2022-08-03T12:20:10.281Z,101248.94
2022-08-03T12:22:40.667Z,101240.78
2022-08-03T12:25:08.916Z,101198.38
2022-08-03T12:27:36.079Z,101230.03
2022-08-03T12:30:03.861Z,101234.97
2022-08-03T12:32:31.402Z,101239.22
2022-08-03T12:35:00.226Z,101228.16
2022-08-03T12:37:27.500Z,101228.50
2022-08-03T12:40:00.413Z,101192.53
2022-08-03T12:42:35.088Z,101228.81
2022-08-03T12:45:28.316Z,101218.38
2022-08-03T12:47:57.982Z,101236.81
2022-08-03T12:50:31.374Z,101232.13
2022-08-03T12:53:01.276Z,101234.06
2022-08-03T12:55:28.207Z,101236.91
2022-08-03T12:57:54.768Z,101228.25
2022-08-03T13:00:29.425Z,101237.47
2022-08-03T13:03:38.215Z,101188.38
2022-08-03T13:05:52.535Z,101237.91
2022-08-03T13:08:24.513Z,101232.13
2022-08-03T13:10:51.383Z,101227.19
2022-08-03T13:13:17.930Z,101223.72
2022-08-03T13:15:48.123Z,101218.78
2022-08-03T13:18:15.253Z,101228.41
2022-08-03T13:20:44.172Z,101221.53
2022-08-03T13:23:13.000Z,101225.22
2022-08-03T13:25:55.074Z,101225.50
2022-08-03T13:28:22.638Z,101220.59
2022-08-03T13:30:49.360Z,101216.41
2022-08-03T13:33:15.917Z,101234.03
2022-08-03T13:35:42.428Z,101219.81
2022-08-03T13:38:09.005Z,101223.72
2022-08-03T13:40:41.806Z,101217.88
2022-08-03T13:43:08.660Z,101206.59
2022-08-03T13:45:35.225Z,101211.81
2022-08-03T13:48:01.870Z,101213.50
2022-08-03T13:50:28.375Z,101209.53
2022-08-03T13:52:54.911Z,101209.44
2022-08-03T13:55:21.404Z,101220.03
2022-08-03T13:58:11.747Z,101203.41
2022-08-03T14:00:34.611Z,101208.88
2022-08-03T14:03:07.939Z,101214.09
2022-08-03T14:05:36.095Z,101217.84
2022-08-03T14:08:04.169Z,101181.00
2022-08-03T14:10:38.827Z,101191.69
2022-08-03T14:13:06.637Z,101204.38
2022-08-03T14:15:37.778Z,101205.09
2022-08-03T14:18:06.637Z,101199.84
2022-08-03T14:20:37.876Z,101206.31
2022-08-03T14:23:06.179Z,101189.00
2022-08-03T14:25:49.876Z,101190.19
2022-08-03T14:28:18.899Z,101194.75
2022-08-03T14:30:46.178Z,101191.25
2022-08-03T14:33:12.735Z,101179.63
2022-08-03T14:35:39.356Z,101175.38
2022-08-03T14:38:06.261Z,101189.63
2022-08-03T14:40:32.922Z,101169.28
2022-08-03T14:42:59.563Z,101176.94
2022-08-03T14:45:26.156Z,101172.38
2022-08-03T14:50:30.176Z,101161.09
2022-08-03T14:50:45.460Z,101163.66
2022-08-03T14:53:15.510Z,101160.81
2022-08-03T14:55:50.607Z,101168.75
2022-08-03T14:58:21.482Z,101166.19
2022-08-03T15:00:48.518Z,101169.16
2022-08-03T15:03:16.599Z,101167.78
2022-08-03T15:05:44.397Z,101167.69
2022-08-03T15:08:11.006Z,101164.38
2022-08-03T15:10:44.029Z,101142.88
2022-08-03T15:13:11.950Z,101156.34
2022-08-03T15:15:38.518Z,101163.97
2022-08-03T15:18:05.184Z,101151.00
2022-08-03T15:20:43.263Z,101163.16
2022-08-03T15:23:12.151Z,101165.72
2022-08-03T15:26:28.791Z,101158.69
2022-08-03T15:28:25.315Z,101143.41
2022-08-03T15:30:52.737Z,101145.69
2022-08-03T15:33:19.331Z,101155.63
2022-08-03T15:35:45.894Z,101149.16
2022-08-03T15:38:12.419Z,101149.16
2022-08-03T15:40:38.980Z,101151.47
2022-08-03T15:43:05.737Z,101145.97
2022-08-03T15:45:35.339Z,101145.28
2022-08-03T15:48:03.663Z,101139.59
2022-08-03T15:50:30.243Z,101144.31
2022-08-03T15:52:56.898Z,101126.47
2022-08-03T15:55:23.400Z,101135.34
2022-08-03T15:59:11.069Z,101129.41
2022-08-03T16:00:36.772Z,101138.09
2022-08-03T16:03:03.310Z,101131.84
2022-08-03T16:05:29.937Z,101134.94
2022-08-03T16:08:03.042Z,101135.69
2022-08-03T16:10:30.824Z,101145.16
2022-08-03T16:12:57.577Z,101139.81
2022-08-03T16:15:24.272Z,101143.00
2022-08-03T16:17:50.809Z,101137.81
2022-08-03T16:20:34.282Z,101134.56
2022-08-03T16:23:06.989Z,101137.84
2022-08-03T16:25:38.587Z,101139.59
2022-08-03T16:28:08.097Z,101146.69
2022-08-03T16:30:40.391Z,101137.47
2022-08-03T16:33:06.914Z,101135.06
2022-08-03T16:35:33.619Z,101132.25
2022-08-03T16:38:00.551Z,101132.97
2022-08-03T16:40:27.246Z,101143.31
2022-08-03T16:42:53.890Z,101148.19
2022-08-03T16:45:20.802Z,101163.03
2022-08-03T16:47:47.327Z,101158.06
2022-08-03T16:50:27.901Z,101161.84
2022-08-03T16:52:54.482Z,101175.38
2022-08-03T16:55:48.704Z,101146.25
2022-08-03T16:58:08.415Z,101158.16
2022-08-03T17:00:41.502Z,101160.88
2022-08-03T17:03:12.770Z,101143.19
2022-08-03T17:05:47.629Z,101158.13
2022-08-03T17:08:15.435Z,101154.03
2022-08-03T17:10:45.454Z,101155.00
2022-08-03T17:13:15.185Z,101141.41
2022-08-03T17:16:01.388Z,101110.22
2022-08-03T17:18:35.324Z,101141.34
2022-08-03T17:21:04.260Z,101128.00
2022-08-03T17:23:49.923Z,101157.53
2022-08-03T17:26:21.937Z,101154.63
2022-08-03T17:28:57.812Z,101142.56
2022-08-03T17:31:30.866Z,101157.81
2022-08-03T17:34:00.917Z,101166.16
2022-08-03T17:36:47.476Z,101158.91
2022-08-03T17:39:30.798Z,101167.63
2022-08-03T17:42:03.160Z,101157.91
2022-08-03T17:44:37.644Z,101166.50
2022-08-03T17:47:10.875Z,101152.28
2022-08-03T17:49:39.992Z,101147.41
2022-08-03T17:52:19.385Z,101152.13
2022-08-03T17:55:50.714Z,101151.53
2022-08-03T17:58:06.660Z,101151.25
2022-08-03T18:00:37.407Z,101109.84
2022-08-03T18:03:24.481Z,101153.63
2022-08-03T18:06:09.065Z,101150.44
2022-08-03T18:08:50.465Z,101148.69
2022-08-03T18:11:22.031Z,101158.22
2022-08-03T18:14:15.922Z,101118.22
2022-08-03T18:17:01.686Z,101139.66
2022-08-03T18:20:03.451Z,101154.09
2022-08-03T18:22:16.047Z,101149.63
2022-08-03T18:24:44.428Z,101158.81
2022-08-03T18:27:13.965Z,101163.28
2022-08-03T18:29:41.997Z,101168.22
2022-08-03T18:32:16.752Z,101128.19
2022-08-03T18:34:53.299Z,101135.22
2022-08-03T18:37:25.179Z,101165.50
2022-08-03T18:39:55.635Z,101159.53
2022-08-03T18:42:25.789Z,101178.56
2022-08-03T18:44:56.380Z,101171.66
2022-08-03T18:47:26.213Z,101174.66
2022-08-03T18:50:24.249Z,101177.66
2022-08-03T18:52:56.532Z,101181.47
2022-08-03T18:55:33.432Z,101182.34
2022-08-03T18:58:09.527Z,101187.84
2022-08-03T19:01:15.220Z,101195.72
2022-08-03T19:04:14.293Z,101172.38
2022-08-03T19:06:45.457Z,101200.72
2022-08-03T19:09:32.340Z,101141.63
2022-08-03T19:12:11.109Z,101193.38
2022-08-03T19:14:55.799Z,101145.56
2022-08-03T19:17:29.433Z,101196.56
2022-08-03T19:19:57.895Z,101202.56
2022-08-03T19:22:25.515Z,101195.44
2022-08-03T19:24:54.397Z,101203.81
2022-08-03T19:27:26.968Z,101193.09
2022-08-03T19:29:59.583Z,101211.69
2022-08-03T19:32:31.753Z,101205.81
2022-08-03T19:35:00.090Z,101195.72
2022-08-03T19:37:38.270Z,101160.97
2022-08-03T19:40:10.723Z,101213.75
2022-08-03T19:42:44.319Z,101181.66
2022-08-03T19:45:15.381Z,101218.28
2022-08-03T19:47:52.765Z,101160.44
2022-08-03T19:50:20.530Z,101226.72
2022-08-03T19:52:49.312Z,101217.41
2022-08-03T19:55:17.605Z,101218.91
2022-08-03T19:57:49.331Z,101175.91
2022-08-03T20:00:17.384Z,101222.19
2022-08-03T20:02:45.213Z,101229.56
2022-08-03T20:05:15.248Z,101229.81
2022-08-03T20:07:47.864Z,101182.19
2022-08-03T20:10:16.997Z,101247.16
2022-08-03T20:12:47.824Z,101186.31
2022-08-03T20:15:18.340Z,101240.47
2022-08-03T20:17:58.677Z,101237.97
2022-08-03T20:20:29.433Z,101198.22
2022-08-03T20:22:58.334Z,101191.28
2022-08-03T20:25:38.835Z,101190.69
2022-08-03T20:28:14.175Z,101232.03
2022-08-03T20:30:47.426Z,101242.66
2022-08-03T20:36:01.718Z,101244.09
2022-08-03T20:38:28.239Z,101250.44
2022-08-03T20:40:56.034Z,101239.13
2022-08-03T20:43:25.740Z,101237.59
2022-08-03T20:45:59.158Z,101243.22
2022-08-03T20:48:43.297Z,101241.66
2022-08-03T20:51:20.183Z,101240.22
2022-08-03T20:54:07.846Z,101244.81
2022-08-03T20:56:49.652Z,101242.50
2022-08-03T20:59:16.600Z,101246.25
2022-08-03T21:01:44.389Z,101241.63
2022-08-03T21:04:11.462Z,101255.66
2022-08-03T21:06:54.427Z,101259.56
2022-08-03T21:09:24.132Z,101260.69
2022-08-03T21:12:03.035Z,101255.09
2022-08-03T21:13:07.091Z,101241.19
2022-08-03T21:14:41.601Z,101206.56
2022-08-03T21:17:14.324Z,101264.22
2022-08-03T21:19:53.291Z,101257.59
2022-08-03T21:22:25.927Z,101209.00
2022-08-03T21:24:55.967Z,101259.78
2022-08-03T21:27:24.168Z,101203.53
2022-08-03T21:29:53.343Z,101259.44
2022-08-03T21:32:32.514Z,101204.16
2022-08-03T21:35:00.629Z,101264.59
2022-08-03T21:37:28.264Z,101268.50
2022-08-03T21:39:55.907Z,101263.56
2022-08-03T21:42:23.398Z,101269.09
2022-08-03T21:44:51.800Z,101216.28
2022-08-03T21:47:20.834Z,101260.84
2022-08-03T21:50:07.378Z,101258.50
2022-08-03T21:52:46.146Z,101266.69
2022-08-03T21:55:20.398Z,101254.06
2022-08-03T21:57:52.229Z,101250.84
2022-08-03T22:00:19.876Z,101260.69
2022-08-03T22:02:54.607Z,101233.75
2022-08-03T22:05:29.112Z,101242.06
2022-08-03T22:08:14.553Z,101270.34
2022-08-03T22:10:44.244Z,101268.91
2022-08-03T22:13:13.180Z,101246.91
2022-08-03T22:15:40.230Z,101264.34
2022-08-03T22:18:06.861Z,101268.91
2022-08-03T22:20:33.555Z,101267.41
2022-08-03T22:23:03.342Z,101226.56
2022-08-03T22:25:39.154Z,101214.84
2022-08-03T22:28:11.789Z,101276.06
2022-08-03T22:30:40.449Z,101284.97
2022-08-03T22:33:11.139Z,101286.84
2022-08-03T22:35:48.830Z,101242.66
2022-08-03T22:38:18.922Z,101234.19
2022-08-03T22:40:49.040Z,101297.09
2022-08-03T22:43:16.356Z,101277.38
2022-08-03T22:46:10.478Z,101294.78
2022-08-03T22:48:34.361Z,101286.47
2022-08-03T22:51:02.565Z,101281.34
2022-08-03T22:53:29.929Z,101286.53
2022-08-03T22:55:57.289Z,101297.09
2022-08-03T22:58:24.869Z,101298.97
2022-08-03T23:00:58.097Z,101246.78
2022-08-03T23:03:58.934Z,101261.75
2022-08-03T23:06:19.416Z,101299.69
2022-08-03T23:08:47.211Z,101285.91
2022-08-03T23:11:17.613Z,101275.09
2022-08-03T23:13:47.129Z,101296.72
2022-08-03T23:16:16.042Z,101261.72
2022-08-03T23:18:56.238Z,101304.00
2022-08-03T23:22:00.639Z,101264.75
2022-08-03T23:24:28.463Z,101313.69
2022-08-03T23:26:57.189Z,101312.06
2022-08-03T23:29:23.805Z,101312.34
2022-08-03T23:31:53.482Z,101310.63
2022-08-03T23:34:23.307Z,101272.19
2022-08-03T23:36:49.819Z,101313.47
2022-08-03T23:39:17.500Z,101310.03
2022-08-03T23:41:48.417Z,101310.31
2022-08-03T23:44:17.636Z,101330.41
2022-08-03T23:46:45.563Z,101315.78
2022-08-03T23:49:12.126Z,101319.22
2022-08-03T23:51:56.826Z,101318.41
2022-08-03T23:54:29.003Z,101312.72
2022-08-03T23:57:13.904Z,101295.31
